sensor_id;sensor_type;location;lat;lon;timestamp;P1;durP1;ratioP1;P2;durP2;ratioP2
35576;SDS011;21680;52.400;16.920;2022-12-08T00:02:13;18.90;;;6.30;;
35576;SDS011;21680;52.400;16.920;2022-12-08T00:04:38;17.30;;;5.90;;
35576;SDS011;21680;52.400;16.920;2022-12-08T00:07:22;22.60;;;6.80;;
35576;SDS011;21680;52.400;16.920;2022-12-08T00:10:07;24.80;;;7.00;;
35576;SDS011;21680;52.400;16.920;2022-12-08T00:12:33;21.60;;;7.70;;
35576;SDS011;21680;52.400;16.920;2022-12-08T00:15:01;22.40;;;6.50;;
35576;SDS011;21680;52.400;16.920;2022-12-08T00:17:27;19.50;;;6.70;;
35576;SDS011;21680;52.400;16.920;2022-12-08T00:19:52;24.90;;;7.60;;
35576;SDS011;21680;52.400;16.920;2022-12-08T00:22:17;18.70;;;7.60;;
35576;SDS011;21680;52.400;16.920;2022-12-08T00:24:43;13.80;;;5.90;;
35576;SDS011;21680;52.400;16.920;2022-12-08T00:27:10;18.70;;;7.50;;
35576;SDS011;21680;52.400;16.920;2022-12-08T00:29:37;22.70;;;7.10;;
35576;SDS011;21680;52.400;16.920;2022-12-08T00:32:03;20.70;;;7.50;;
35576;SDS011;21680;52.400;16.920;2022-12-08T00:34:29;23.00;;;7.70;;
35576;SDS011;21680;52.400;16.920;2022-12-08T00:36:55;17.90;;;6.90;;
35576;SDS011;21680;52.400;16.920;2022-12-08T00:39:20;14.00;;;6.10;;
35576;SDS011;21680;52.400;16.920;2022-12-08T00:41:46;21.20;;;7.40;;
35576;SDS011;21680;52.400;16.920;2022-12-08T00:44:30;21.70;;;7.10;;
35576;SDS011;21680;52.400;16.920;2022-12-08T00:46:55;22.50;;;7.60;;
35576;SDS011;21680;52.400;16.920;2022-12-08T00:49:20;17.30;;;7.00;;
35576;SDS011;21680;52.400;16.920;2022-12-08T00:51:46;19.20;;;7.10;;
35576;SDS011;21680;52.400;16.920;2022-12-08T00:54:12;23.60;;;8.40;;
35576;SDS011;21680;52.400;16.920;2022-12-08T00:56:38;22.50;;;8.30;;
35576;SDS011;21680;52.400;16.920;2022-12-08T00:59:04;22.40;;;7.70;;
35576;SDS011;21680;52.400;16.920;2022-12-08T01:01:30;24.90;;;9.20;;
35576;SDS011;21680;52.400;16.920;2022-12-08T01:03:56;17.60;;;7.70;;
35576;SDS011;21680;52.400;16.920;2022-12-08T01:06:21;25.10;;;9.00;;
35576;SDS011;21680;52.400;16.920;2022-12-08T01:08:47;20.20;;;8.90;;
35576;SDS011;21680;52.400;16.920;2022-12-08T01:11:14;16.70;;;7.60;;
35576;SDS011;21680;52.400;16.920;2022-12-08T01:13:41;22.30;;;7.90;;
35576;SDS011;21680;52.400;16.920;2022-12-08T01:16:07;18.20;;;8.00;;
35576;SDS011;21680;52.400;16.920;2022-12-08T01:18:33;25.80;;;9.80;;
35576;SDS011;21680;52.400;16.920;2022-12-08T01:21:08;18.10;;;7.40;;
35576;SDS011;21680;52.400;16.920;2022-12-08T01:23:34;21.30;;;8.50;;
35576;SDS011;21680;52.400;16.920;2022-12-08T01:26:03;25.10;;;7.70;;
35576;SDS011;21680;52.400;16.920;2022-12-08T01:28:30;35.00;;;10.40;;
35576;SDS011;21680;52.400;16.920;2022-12-08T01:30:56;30.30;;;9.90;;
35576;SDS011;21680;52.400;16.920;2022-12-08T01:33:22;21.60;;;8.70;;
35576;SDS011;21680;52.400;16.920;2022-12-08T01:35:48;27.70;;;9.70;;
35576;SDS011;21680;52.400;16.920;2022-12-08T01:38:13;32.70;;;10.20;;
35576;SDS011;21680;52.400;16.920;2022-12-08T01:40:39;29.50;;;10.50;;
35576;SDS011;21680;52.400;16.920;2022-12-08T01:43:07;30.40;;;10.90;;
35576;SDS011;21680;52.400;16.920;2022-12-08T01:45:38;37.70;;;11.90;;
35576;SDS011;21680;52.400;16.920;2022-12-08T01:48:04;37.40;;;12.00;;
35576;SDS011;21680;52.400;16.920;2022-12-08T01:53:07;39.30;;;13.40;;
35576;SDS011;21680;52.400;16.920;2022-12-08T01:55:43;36.60;;;13.00;;
35576;SDS011;21680;52.400;16.920;2022-12-08T01:58:15;33.60;;;12.40;;
35576;SDS011;21680;52.400;16.920;2022-12-08T02:00:47;31.90;;;11.80;;
35576;SDS011;21680;52.400;16.920;2022-12-08T02:03:15;38.30;;;13.80;;
35576;SDS011;21680;52.400;16.920;2022-12-08T02:05:46;36.60;;;12.50;;
35576;SDS011;21680;52.400;16.920;2022-12-08T02:08:12;35.50;;;12.70;;
35576;SDS011;21680;52.400;16.920;2022-12-08T02:10:39;36.30;;;12.80;;
35576;SDS011;21680;52.400;16.920;2022-12-08T02:13:07;31.90;;;11.30;;
35576;SDS011;21680;52.400;16.920;2022-12-08T02:21:33;37.00;;;12.10;;
35576;SDS011;21680;52.400;16.920;2022-12-08T02:24:12;33.20;;;11.20;;
35576;SDS011;21680;52.400;16.920;2022-12-08T02:32:33;20.90;;;8.70;;
35576;SDS011;21680;52.400;16.920;2022-12-08T02:35:38;25.50;;;9.50;;
35576;SDS011;21680;52.400;16.920;2022-12-08T02:43:28;37.00;;;11.70;;
35576;SDS011;21680;52.400;16.920;2022-12-08T02:48:29;33.60;;;9.70;;
35576;SDS011;21680;52.400;16.920;2022-12-08T02:50:57;34.00;;;10.40;;
35576;SDS011;21680;52.400;16.920;2022-12-08T02:53:22;30.00;;;10.30;;
35576;SDS011;21680;52.400;16.920;2022-12-08T02:55:55;27.00;;;10.70;;
35576;SDS011;21680;52.400;16.920;2022-12-08T02:58:34;27.50;;;9.90;;
35576;SDS011;21680;52.400;16.920;2022-12-08T03:07:02;34.40;;;12.00;;
35576;SDS011;21680;52.400;16.920;2022-12-08T03:09:33;34.00;;;12.20;;
35576;SDS011;21680;52.400;16.920;2022-12-08T03:12:11;36.60;;;13.40;;
35576;SDS011;21680;52.400;16.920;2022-12-08T03:14:44;35.60;;;12.60;;
35576;SDS011;21680;52.400;16.920;2022-12-08T03:17:14;31.70;;;12.00;;
35576;SDS011;21680;52.400;16.920;2022-12-08T03:19:43;32.80;;;12.20;;
35576;SDS011;21680;52.400;16.920;2022-12-08T03:22:12;35.90;;;13.30;;
35576;SDS011;21680;52.400;16.920;2022-12-08T03:24:42;56.00;;;14.50;;
35576;SDS011;21680;52.400;16.920;2022-12-08T03:29:39;47.50;;;17.30;;
35576;SDS011;21680;52.400;16.920;2022-12-08T03:32:15;37.70;;;15.00;;
35576;SDS011;21680;52.400;16.920;2022-12-08T03:34:44;48.90;;;18.00;;
35576;SDS011;21680;52.400;16.920;2022-12-08T03:37:12;57.70;;;18.00;;
35576;SDS011;21680;52.400;16.920;2022-12-08T03:39:37;49.10;;;16.30;;
35576;SDS011;21680;52.400;16.920;2022-12-08T03:42:03;52.20;;;18.60;;
35576;SDS011;21680;52.400;16.920;2022-12-08T03:44:28;52.40;;;17.40;;
35576;SDS011;21680;52.400;16.920;2022-12-08T03:46:53;52.10;;;19.00;;
35576;SDS011;21680;52.400;16.920;2022-12-08T03:49:18;50.30;;;19.30;;
35576;SDS011;21680;52.400;16.920;2022-12-08T03:51:44;63.40;;;23.00;;
35576;SDS011;21680;52.400;16.920;2022-12-08T03:54:09;59.10;;;20.70;;
35576;SDS011;21680;52.400;16.920;2022-12-08T03:56:35;53.30;;;20.00;;
35576;SDS011;21680;52.400;16.920;2022-12-08T03:59:03;62.90;;;19.80;;
35576;SDS011;21680;52.400;16.920;2022-12-08T04:01:30;56.80;;;20.10;;
35576;SDS011;21680;52.400;16.920;2022-12-08T04:03:56;56.10;;;20.90;;
35576;SDS011;21680;52.400;16.920;2022-12-08T04:06:21;56.60;;;19.00;;
35576;SDS011;21680;52.400;16.920;2022-12-08T04:08:47;57.40;;;19.10;;
35576;SDS011;21680;52.400;16.920;2022-12-08T04:11:13;60.80;;;19.30;;
35576;SDS011;21680;52.400;16.920;2022-12-08T04:13:39;66.00;;;21.10;;
35576;SDS011;21680;52.400;16.920;2022-12-08T04:16:05;53.90;;;18.50;;
35576;SDS011;21680;52.400;16.920;2022-12-08T04:18:32;80.60;;;23.40;;
35576;SDS011;21680;52.400;16.920;2022-12-08T04:20:59;50.80;;;18.30;;
35576;SDS011;21680;52.400;16.920;2022-12-08T04:23:24;58.40;;;19.40;;
35576;SDS011;21680;52.400;16.920;2022-12-08T04:25:50;70.90;;;22.60;;
35576;SDS011;21680;52.400;16.920;2022-12-08T04:28:16;62.70;;;21.30;;
35576;SDS011;21680;52.400;16.920;2022-12-08T04:30:41;66.70;;;21.60;;
35576;SDS011;21680;52.400;16.920;2022-12-08T04:33:07;68.00;;;23.20;;
35576;SDS011;21680;52.400;16.920;2022-12-08T04:35:32;75.60;;;23.60;;
35576;SDS011;21680;52.400;16.920;2022-12-08T04:37:57;67.20;;;24.80;;
35576;SDS011;21680;52.400;16.920;2022-12-08T04:40:23;67.90;;;25.10;;
35576;SDS011;21680;52.400;16.920;2022-12-08T04:42:48;70.70;;;24.20;;
35576;SDS011;21680;52.400;16.920;2022-12-08T04:45:13;64.20;;;21.70;;
35576;SDS011;21680;52.400;16.920;2022-12-08T04:47:39;63.80;;;21.70;;
35576;SDS011;21680;52.400;16.920;2022-12-08T04:50:05;67.60;;;21.20;;
35576;SDS011;21680;52.400;16.920;2022-12-08T04:52:31;59.10;;;21.30;;
35576;SDS011;21680;52.400;16.920;2022-12-08T04:54:56;64.90;;;22.80;;
35576;SDS011;21680;52.400;16.920;2022-12-08T04:57:22;72.70;;;25.50;;
35576;SDS011;21680;52.400;16.920;2022-12-08T04:59:47;78.10;;;26.10;;
35576;SDS011;21680;52.400;16.920;2022-12-08T05:02:12;70.40;;;25.90;;
35576;SDS011;21680;52.400;16.920;2022-12-08T05:04:38;82.80;;;25.00;;
35576;SDS011;21680;52.400;16.920;2022-12-08T05:07:03;78.20;;;26.80;;
35576;SDS011;21680;52.400;16.920;2022-12-08T05:09:29;76.40;;;25.90;;
35576;SDS011;21680;52.400;16.920;2022-12-08T05:11:54;74.60;;;25.90;;
35576;SDS011;21680;52.400;16.920;2022-12-08T05:14:19;77.00;;;25.00;;
35576;SDS011;21680;52.400;16.920;2022-12-08T05:16:45;70.10;;;24.90;;
35576;SDS011;21680;52.400;16.920;2022-12-08T05:19:11;73.80;;;23.60;;
35576;SDS011;21680;52.400;16.920;2022-12-08T05:21:37;78.70;;;26.40;;
35576;SDS011;21680;52.400;16.920;2022-12-08T05:24:02;76.10;;;23.10;;
35576;SDS011;21680;52.400;16.920;2022-12-08T05:26:28;64.10;;;24.50;;
35576;SDS011;21680;52.400;16.920;2022-12-08T05:28:53;79.80;;;26.20;;
35576;SDS011;21680;52.400;16.920;2022-12-08T05:31:19;75.30;;;28.10;;
35576;SDS011;21680;52.400;16.920;2022-12-08T05:33:44;84.70;;;30.70;;
35576;SDS011;21680;52.400;16.920;2022-12-08T05:36:11;85.80;;;30.30;;
35576;SDS011;21680;52.400;16.920;2022-12-08T05:38:38;86.00;;;30.40;;
35576;SDS011;21680;52.400;16.920;2022-12-08T05:41:07;83.40;;;30.10;;
35576;SDS011;21680;52.400;16.920;2022-12-08T05:43:34;89.70;;;32.20;;
35576;SDS011;21680;52.400;16.920;2022-12-08T05:45:59;83.50;;;29.80;;
35576;SDS011;21680;52.400;16.920;2022-12-08T05:48:25;77.80;;;28.80;;
35576;SDS011;21680;52.400;16.920;2022-12-08T05:50:51;75.50;;;26.50;;
35576;SDS011;21680;52.400;16.920;2022-12-08T05:53:17;67.30;;;25.90;;
35576;SDS011;21680;52.400;16.920;2022-12-08T05:55:43;62.60;;;24.70;;
35576;SDS011;21680;52.400;16.920;2022-12-08T05:58:13;83.60;;;26.10;;
35576;SDS011;21680;52.400;16.920;2022-12-08T06:00:44;83.40;;;26.50;;
35576;SDS011;21680;52.400;16.920;2022-12-08T06:03:11;65.60;;;24.10;;
35576;SDS011;21680;52.400;16.920;2022-12-08T06:05:37;84.00;;;27.40;;
35576;SDS011;21680;52.400;16.920;2022-12-08T06:08:04;83.40;;;27.00;;
35576;SDS011;21680;52.400;16.920;2022-12-08T06:10:29;83.50;;;29.30;;
35576;SDS011;21680;52.400;16.920;2022-12-08T06:12:54;74.40;;;27.40;;
35576;SDS011;21680;52.400;16.920;2022-12-08T06:15:19;71.60;;;27.20;;
35576;SDS011;21680;52.400;16.920;2022-12-08T06:17:45;66.50;;;26.10;;
35576;SDS011;21680;52.400;16.920;2022-12-08T06:20:10;91.20;;;30.40;;
35576;SDS011;21680;52.400;16.920;2022-12-08T06:22:36;78.90;;;25.90;;
35576;SDS011;21680;52.400;16.920;2022-12-08T06:25:01;67.70;;;25.30;;
35576;SDS011;21680;52.400;16.920;2022-12-08T06:27:27;62.80;;;25.70;;
35576;SDS011;21680;52.400;16.920;2022-12-08T06:29:52;79.80;;;28.50;;
35576;SDS011;21680;52.400;16.920;2022-12-08T06:32:18;75.00;;;27.70;;
35576;SDS011;21680;52.400;16.920;2022-12-08T06:34:44;91.60;;;35.30;;
35576;SDS011;21680;52.400;16.920;2022-12-08T06:37:09;83.40;;;34.90;;
35576;SDS011;21680;52.400;16.920;2022-12-08T06:39:35;90.10;;;35.30;;
35576;SDS011;21680;52.400;16.920;2022-12-08T06:42:01;81.80;;;32.60;;
35576;SDS011;21680;52.400;16.920;2022-12-08T06:44:45;83.00;;;34.10;;
35576;SDS011;21680;52.400;16.920;2022-12-08T06:47:11;90.30;;;31.60;;
35576;SDS011;21680;52.400;16.920;2022-12-08T06:49:36;83.20;;;28.00;;
35576;SDS011;21680;52.400;16.920;2022-12-08T06:52:01;86.60;;;29.80;;
35576;SDS011;21680;52.400;16.920;2022-12-08T06:54:26;82.70;;;29.90;;
35576;SDS011;21680;52.400;16.920;2022-12-08T06:56:52;83.90;;;34.50;;
35576;SDS011;21680;52.400;16.920;2022-12-08T06:59:17;74.40;;;32.70;;
35576;SDS011;21680;52.400;16.920;2022-12-08T07:01:43;74.30;;;32.60;;
35576;SDS011;21680;52.400;16.920;2022-12-08T07:04:09;77.00;;;31.60;;
35576;SDS011;21680;52.400;16.920;2022-12-08T07:06:34;80.40;;;32.50;;
35576;SDS011;21680;52.400;16.920;2022-12-08T07:09:03;75.80;;;31.80;;
35576;SDS011;21680;52.400;16.920;2022-12-08T07:11:28;100.70;;;32.60;;
35576;SDS011;21680;52.400;16.920;2022-12-08T07:13:56;278.00;;;60.00;;
35576;SDS011;21680;52.400;16.920;2022-12-08T07:16:22;143.20;;;40.70;;
35576;SDS011;21680;52.400;16.920;2022-12-08T07:18:48;131.60;;;35.50;;
35576;SDS011;21680;52.400;16.920;2022-12-08T07:21:13;195.60;;;43.10;;
35576;SDS011;21680;52.400;16.920;2022-12-08T07:23:40;90.00;;;30.90;;
35576;SDS011;21680;52.400;16.920;2022-12-08T07:26:06;131.50;;;33.30;;
35576;SDS011;21680;52.400;16.920;2022-12-08T07:28:35;123.60;;;29.00;;
35576;SDS011;21680;52.400;16.920;2022-12-08T07:31:02;110.40;;;33.80;;
35576;SDS011;21680;52.400;16.920;2022-12-08T07:33:28;102.40;;;30.80;;
35576;SDS011;21680;52.400;16.920;2022-12-08T07:38:24;85.50;;;27.10;;
35576;SDS011;21680;52.400;16.920;2022-12-08T07:40:50;68.60;;;30.00;;
35576;SDS011;21680;52.400;16.920;2022-12-08T07:43:16;77.70;;;30.30;;
35576;SDS011;21680;52.400;16.920;2022-12-08T07:45:42;88.90;;;32.90;;
35576;SDS011;21680;52.400;16.920;2022-12-08T07:48:07;78.00;;;30.90;;
35576;SDS011;21680;52.400;16.920;2022-12-08T07:50:33;95.10;;;33.80;;
35576;SDS011;21680;52.400;16.920;2022-12-08T07:52:59;90.90;;;30.10;;
35576;SDS011;21680;52.400;16.920;2022-12-08T07:55:25;86.90;;;34.30;;
35576;SDS011;21680;52.400;16.920;2022-12-08T07:57:50;71.70;;;30.30;;
35576;SDS011;21680;52.400;16.920;2022-12-08T08:00:16;80.60;;;28.70;;
35576;SDS011;21680;52.400;16.920;2022-12-08T08:02:42;77.30;;;28.50;;
35576;SDS011;21680;52.400;16.920;2022-12-08T08:05:08;74.50;;;29.00;;
35576;SDS011;21680;52.400;16.920;2022-12-08T08:07:34;74.00;;;28.10;;
35576;SDS011;21680;52.400;16.920;2022-12-08T08:10:01;75.70;;;26.90;;
35576;SDS011;21680;52.400;16.920;2022-12-08T08:12:27;78.50;;;30.20;;
35576;SDS011;21680;52.400;16.920;2022-12-08T08:14:52;71.80;;;29.80;;
35576;SDS011;21680;52.400;16.920;2022-12-08T08:17:17;72.50;;;29.30;;
35576;SDS011;21680;52.400;16.920;2022-12-08T08:19:42;70.10;;;26.00;;
35576;SDS011;21680;52.400;16.920;2022-12-08T08:22:08;75.70;;;30.10;;
35576;SDS011;21680;52.400;16.920;2022-12-08T08:24:33;86.10;;;35.90;;
35576;SDS011;21680;52.400;16.920;2022-12-08T08:26:58;80.50;;;33.00;;
35576;SDS011;21680;52.400;16.920;2022-12-08T08:29:23;77.80;;;31.00;;
35576;SDS011;21680;52.400;16.920;2022-12-08T08:31:49;80.70;;;33.50;;
35576;SDS011;21680;52.400;16.920;2022-12-08T08:34:14;78.20;;;31.00;;
35576;SDS011;21680;52.400;16.920;2022-12-08T08:36:39;77.20;;;31.50;;
35576;SDS011;21680;52.400;16.920;2022-12-08T08:39:05;91.40;;;36.30;;
35576;SDS011;21680;52.400;16.920;2022-12-08T08:41:31;64.70;;;29.80;;
35576;SDS011;21680;52.400;16.920;2022-12-08T08:43:56;73.10;;;32.30;;
35576;SDS011;21680;52.400;16.920;2022-12-08T08:46:21;81.40;;;35.50;;
35576;SDS011;21680;52.400;16.920;2022-12-08T08:48:46;81.80;;;33.70;;
35576;SDS011;21680;52.400;16.920;2022-12-08T08:51:12;92.90;;;38.60;;
35576;SDS011;21680;52.400;16.920;2022-12-08T08:53:39;93.70;;;38.50;;
35576;SDS011;21680;52.400;16.920;2022-12-08T08:56:09;88.10;;;36.90;;
35576;SDS011;21680;52.400;16.920;2022-12-08T08:58:36;82.80;;;35.90;;
35576;SDS011;21680;52.400;16.920;2022-12-08T09:01:01;74.50;;;32.40;;
35576;SDS011;21680;52.400;16.920;2022-12-08T09:03:26;77.30;;;34.20;;
35576;SDS011;21680;52.400;16.920;2022-12-08T09:05:53;78.50;;;34.60;;
35576;SDS011;21680;52.400;16.920;2022-12-08T09:08:19;88.40;;;36.20;;
35576;SDS011;21680;52.400;16.920;2022-12-08T09:10:44;103.90;;;38.60;;
35576;SDS011;21680;52.400;16.920;2022-12-08T09:13:10;99.10;;;41.80;;
35576;SDS011;21680;52.400;16.920;2022-12-08T09:15:35;92.10;;;41.00;;
35576;SDS011;21680;52.400;16.920;2022-12-08T09:18:00;86.90;;;36.10;;
35576;SDS011;21680;52.400;16.920;2022-12-08T09:20:26;81.20;;;36.50;;
35576;SDS011;21680;52.400;16.920;2022-12-08T09:22:51;86.10;;;34.60;;
35576;SDS011;21680;52.400;16.920;2022-12-08T09:25:16;81.40;;;35.10;;
35576;SDS011;21680;52.400;16.920;2022-12-08T09:27:42;79.50;;;34.50;;
35576;SDS011;21680;52.400;16.920;2022-12-08T09:30:07;78.90;;;35.50;;
35576;SDS011;21680;52.400;16.920;2022-12-08T09:32:33;83.80;;;34.30;;
35576;SDS011;21680;52.400;16.920;2022-12-08T09:34:58;74.40;;;33.20;;
35576;SDS011;21680;52.400;16.920;2022-12-08T09:37:24;81.50;;;35.00;;
35576;SDS011;21680;52.400;16.920;2022-12-08T09:39:49;78.10;;;35.10;;
35576;SDS011;21680;52.400;16.920;2022-12-08T09:42:14;79.50;;;33.90;;
35576;SDS011;21680;52.400;16.920;2022-12-08T09:45:08;77.20;;;31.40;;
35576;SDS011;21680;52.400;16.920;2022-12-08T09:47:41;65.50;;;28.10;;
35576;SDS011;21680;52.400;16.920;2022-12-08T09:52:53;64.70;;;29.50;;
35576;SDS011;21680;52.400;16.920;2022-12-08T09:55:58;88.80;;;34.20;;
35576;SDS011;21680;52.400;16.920;2022-12-08T10:01:34;62.50;;;29.30;;
35576;SDS011;21680;52.400;16.920;2022-12-08T10:04:09;65.10;;;28.90;;
35576;SDS011;21680;52.400;16.920;2022-12-08T10:06:49;74.20;;;29.30;;
35576;SDS011;21680;52.400;16.920;2022-12-08T10:12:17;65.70;;;29.50;;
35576;SDS011;21680;52.400;16.920;2022-12-08T10:14:59;58.10;;;25.80;;
35576;SDS011;21680;52.400;16.920;2022-12-08T10:17:36;55.30;;;27.20;;
35576;SDS011;21680;52.400;16.920;2022-12-08T10:20:22;61.80;;;25.70;;
35576;SDS011;21680;52.400;16.920;2022-12-08T10:22:50;61.90;;;27.10;;
35576;SDS011;21680;52.400;16.920;2022-12-08T10:26:04;62.00;;;26.50;;
35576;SDS011;21680;52.400;16.920;2022-12-08T10:28:31;56.30;;;26.40;;
35576;SDS011;21680;52.400;16.920;2022-12-08T10:30:58;60.90;;;26.10;;
35576;SDS011;21680;52.400;16.920;2022-12-08T10:33:23;73.70;;;29.30;;
35576;SDS011;21680;52.400;16.920;2022-12-08T10:35:53;58.40;;;26.00;;
35576;SDS011;21680;52.400;16.920;2022-12-08T10:38:26;54.50;;;24.00;;
35576;SDS011;21680;52.400;16.920;2022-12-08T10:41:15;57.50;;;27.00;;
35576;SDS011;21680;52.400;16.920;2022-12-08T10:43:46;58.20;;;26.40;;
35576;SDS011;21680;52.400;16.920;2022-12-08T10:53:51;56.80;;;25.90;;
35576;SDS011;21680;52.400;16.920;2022-12-08T10:56:17;55.90;;;25.20;;
35576;SDS011;21680;52.400;16.920;2022-12-08T10:58:43;61.50;;;25.50;;
35576;SDS011;21680;52.400;16.920;2022-12-08T11:01:11;65.30;;;29.10;;
35576;SDS011;21680;52.400;16.920;2022-12-08T11:03:44;70.30;;;27.90;;
35576;SDS011;21680;52.400;16.920;2022-12-08T11:06:18;58.90;;;27.90;;
35576;SDS011;21680;52.400;16.920;2022-12-08T11:08:48;67.10;;;27.10;;
35576;SDS011;21680;52.400;16.920;2022-12-08T11:11:16;71.30;;;30.70;;
35576;SDS011;21680;52.400;16.920;2022-12-08T11:13:43;72.10;;;28.50;;
35576;SDS011;21680;52.400;16.920;2022-12-08T11:16:12;77.40;;;32.50;;
35576;SDS011;21680;52.400;16.920;2022-12-08T11:21:09;79.70;;;33.80;;
35576;SDS011;21680;52.400;16.920;2022-12-08T11:23:37;72.50;;;33.30;;
35576;SDS011;21680;52.400;16.920;2022-12-08T11:26:09;69.80;;;32.80;;
35576;SDS011;21680;52.400;16.920;2022-12-08T11:28:42;71.60;;;31.70;;
35576;SDS011;21680;52.400;16.920;2022-12-08T11:31:28;67.90;;;30.00;;
35576;SDS011;21680;52.400;16.920;2022-12-08T11:33:57;75.80;;;30.00;;
35576;SDS011;21680;52.400;16.920;2022-12-08T11:36:24;66.80;;;29.70;;
35576;SDS011;21680;52.400;16.920;2022-12-08T11:38:53;68.60;;;30.50;;
35576;SDS011;21680;52.400;16.920;2022-12-08T11:41:21;65.40;;;27.60;;
35576;SDS011;21680;52.400;16.920;2022-12-08T11:44:00;56.80;;;25.60;;
35576;SDS011;21680;52.400;16.920;2022-12-08T11:46:32;64.70;;;28.30;;
35576;SDS011;21680;52.400;16.920;2022-12-08T11:49:05;65.90;;;27.10;;
35576;SDS011;21680;52.400;16.920;2022-12-08T11:51:43;63.20;;;27.80;;
35576;SDS011;21680;52.400;16.920;2022-12-08T11:54:20;61.00;;;27.20;;
35576;SDS011;21680;52.400;16.920;2022-12-08T11:56:51;56.20;;;27.20;;
35576;SDS011;21680;52.400;16.920;2022-12-08T11:59:33;62.30;;;28.10;;
35576;SDS011;21680;52.400;16.920;2022-12-08T12:02:03;64.20;;;27.50;;
35576;SDS011;21680;52.400;16.920;2022-12-08T12:04:34;61.20;;;25.50;;
35576;SDS011;21680;52.400;16.920;2022-12-08T12:12:10;56.10;;;26.30;;
35576;SDS011;21680;52.400;16.920;2022-12-08T12:17:56;51.10;;;25.70;;
35576;SDS011;21680;52.400;16.920;2022-12-08T12:21:11;58.20;;;24.60;;
35576;SDS011;21680;52.400;16.920;2022-12-08T12:23:38;62.40;;;26.80;;
35576;SDS011;21680;52.400;16.920;2022-12-08T12:26:08;64.20;;;29.90;;
35576;SDS011;21680;52.400;16.920;2022-12-08T12:28:42;51.30;;;25.20;;
35576;SDS011;21680;52.400;16.920;2022-12-08T12:31:14;54.30;;;25.90;;
35576;SDS011;21680;52.400;16.920;2022-12-08T12:33:42;54.10;;;25.60;;
35576;SDS011;21680;52.400;16.920;2022-12-08T12:36:11;55.40;;;25.10;;
35576;SDS011;21680;52.400;16.920;2022-12-08T12:38:39;51.50;;;26.10;;
35576;SDS011;21680;52.400;16.920;2022-12-08T12:46:53;52.60;;;26.20;;
35576;SDS011;21680;52.400;16.920;2022-12-08T13:07:54;60.00;;;26.70;;
35576;SDS011;21680;52.400;16.920;2022-12-08T13:10:25;52.70;;;26.40;;
35576;SDS011;21680;52.400;16.920;2022-12-08T13:18:47;57.60;;;26.20;;
35576;SDS011;21680;52.400;16.920;2022-12-08T13:21:17;50.60;;;24.30;;
35576;SDS011;21680;52.400;16.920;2022-12-08T13:23:49;58.50;;;25.80;;
35576;SDS011;21680;52.400;16.920;2022-12-08T13:34:19;58.90;;;28.60;;
35576;SDS011;21680;52.400;16.920;2022-12-08T13:36:58;61.00;;;27.70;;
35576;SDS011;21680;52.400;16.920;2022-12-08T13:39:48;64.00;;;29.60;;
35576;SDS011;21680;52.400;16.920;2022-12-08T13:42:22;66.20;;;31.10;;
35576;SDS011;21680;52.400;16.920;2022-12-08T13:47:39;61.60;;;30.00;;
35576;SDS011;21680;52.400;16.920;2022-12-08T13:50:17;60.50;;;27.90;;
35576;SDS011;21680;52.400;16.920;2022-12-08T13:52:55;56.10;;;27.40;;
35576;SDS011;21680;52.400;16.920;2022-12-08T13:58:18;60.50;;;26.60;;
35576;SDS011;21680;52.400;16.920;2022-12-08T14:00:55;63.90;;;30.00;;
35576;SDS011;21680;52.400;16.920;2022-12-08T14:03:25;69.00;;;29.70;;
35576;SDS011;21680;52.400;16.920;2022-12-08T14:05:51;65.40;;;30.90;;
35576;SDS011;21680;52.400;16.920;2022-12-08T14:08:28;63.00;;;29.40;;
35576;SDS011;21680;52.400;16.920;2022-12-08T14:11:03;64.10;;;31.30;;
35576;SDS011;21680;52.400;16.920;2022-12-08T14:13:30;61.80;;;28.90;;
35576;SDS011;21680;52.400;16.920;2022-12-08T14:15:58;62.60;;;28.90;;
35576;SDS011;21680;52.400;16.920;2022-12-08T14:18:25;65.50;;;30.30;;
35576;SDS011;21680;52.400;16.920;2022-12-08T14:20:59;61.90;;;27.70;;
35576;SDS011;21680;52.400;16.920;2022-12-08T14:23:28;68.50;;;29.60;;
35576;SDS011;21680;52.400;16.920;2022-12-08T14:25:54;63.50;;;31.20;;
35576;SDS011;21680;52.400;16.920;2022-12-08T14:28:20;66.20;;;28.70;;
35576;SDS011;21680;52.400;16.920;2022-12-08T14:30:47;65.60;;;28.90;;
35576;SDS011;21680;52.400;16.920;2022-12-08T14:33:14;72.70;;;30.30;;
35576;SDS011;21680;52.400;16.920;2022-12-08T14:35:41;59.70;;;27.90;;
35576;SDS011;21680;52.400;16.920;2022-12-08T14:38:13;64.70;;;29.50;;
35576;SDS011;21680;52.400;16.920;2022-12-08T14:40:44;75.60;;;30.30;;
35576;SDS011;21680;52.400;16.920;2022-12-08T14:43:13;67.20;;;29.80;;
35576;SDS011;21680;52.400;16.920;2022-12-08T14:48:25;74.00;;;32.90;;
35576;SDS011;21680;52.400;16.920;2022-12-08T14:56:40;80.30;;;35.80;;
35576;SDS011;21680;52.400;16.920;2022-12-08T14:59:16;87.10;;;39.20;;
35576;SDS011;21680;52.400;16.920;2022-12-08T15:01:44;78.00;;;37.90;;
35576;SDS011;21680;52.400;16.920;2022-12-08T15:06:36;94.40;;;42.00;;
35576;SDS011;21680;52.400;16.920;2022-12-08T15:09:16;89.60;;;40.00;;
35576;SDS011;21680;52.400;16.920;2022-12-08T15:12:00;85.30;;;36.30;;
35576;SDS011;21680;52.400;16.920;2022-12-08T15:14:32;93.80;;;40.60;;
35576;SDS011;21680;52.400;16.920;2022-12-08T15:16:59;90.30;;;41.30;;
35576;SDS011;21680;52.400;16.920;2022-12-08T15:19:29;90.40;;;40.00;;
35576;SDS011;21680;52.400;16.920;2022-12-08T15:22:16;112.20;;;46.70;;
35576;SDS011;21680;52.400;16.920;2022-12-08T15:24:46;100.20;;;43.70;;
35576;SDS011;21680;52.400;16.920;2022-12-08T15:27:15;84.80;;;39.90;;
35576;SDS011;21680;52.400;16.920;2022-12-08T15:29:42;79.10;;;37.30;;
35576;SDS011;21680;52.400;16.920;2022-12-08T15:32:08;84.90;;;41.40;;
35576;SDS011;21680;52.400;16.920;2022-12-08T15:34:35;93.00;;;42.50;;
35576;SDS011;21680;52.400;16.920;2022-12-08T15:37:01;84.60;;;39.30;;
35576;SDS011;21680;52.400;16.920;2022-12-08T15:39:33;93.80;;;41.40;;
35576;SDS011;21680;52.400;16.920;2022-12-08T15:42:01;83.60;;;39.40;;
35576;SDS011;21680;52.400;16.920;2022-12-08T15:44:28;95.60;;;42.30;;
35576;SDS011;21680;52.400;16.920;2022-12-08T15:46:56;97.50;;;42.20;;
35576;SDS011;21680;52.400;16.920;2022-12-08T15:49:23;90.80;;;42.00;;
35576;SDS011;21680;52.400;16.920;2022-12-08T15:51:49;93.30;;;42.20;;
35576;SDS011;21680;52.400;16.920;2022-12-08T15:54:15;99.70;;;42.10;;
35576;SDS011;21680;52.400;16.920;2022-12-08T15:56:45;111.60;;;49.80;;
35576;SDS011;21680;52.400;16.920;2022-12-08T15:59:19;130.10;;;57.40;;
35576;SDS011;21680;52.400;16.920;2022-12-08T16:01:46;99.10;;;50.20;;
35576;SDS011;21680;52.400;16.920;2022-12-08T16:04:15;100.90;;;45.90;;
35576;SDS011;21680;52.400;16.920;2022-12-08T16:06:44;93.20;;;42.50;;
35576;SDS011;21680;52.400;16.920;2022-12-08T16:09:14;97.20;;;44.70;;
35576;SDS011;21680;52.400;16.920;2022-12-08T16:11:43;109.90;;;42.90;;
35576;SDS011;21680;52.400;16.920;2022-12-08T16:14:27;105.30;;;45.50;;